Details From EGCC - Manchester
To MUHG - Frank Pais Intl
Flight Number -
Tags Decoded
Created
Modified
Stats Distance 3,926 nm / 7,271 km
Max Altitude 0 ft / 0 m
Waypoints 6
Social Downloads 0
Likes 0
Share VATSIM

Download

Looking for another format? Having issues loading an existing format? Contact us
Advertisement - Login to hide

Notes

Decoded

Route

EGCC NOKIN NETTA GTK ZIN MUHG

ID Type Via Altitude Latitude Longitude Leg Dist Tot Dist Heading (true) Name
O EGCC APT - 0 ft / 0 m 53.33197˚ -2.31066˚ - 0 nm - -
NOKIN FIX - 0 ft / 0 m 53.07667˚ -2.88278˚ 25 nm 25 nm 234° / 233° -
NETTA FIX - 0 ft / 0 m 21.82306˚ -70.80306˚ 3576 nm 3601 nm 266° / 220° -
GTK VOR - 0 ft / 0 m 21.44067˚ -71.13436˚ 29 nm 3631 nm 219° / 219° GRAND TURK VORTAC
ZIN NDB - 0 ft / 0 m 20.95972˚ -73.67750˚ 145 nm 3776 nm 259° / 258° GREAT INAGUA NDB
O MUHG APT - 0 ft / 0 m 20.77545˚ -76.32635˚ 149 nm 3925 nm 266° / 265° -

Altitude Profile

Advertisement - Login to hide

Weather


0- 5 10 15 20 25 30 35+ Temperature / ° C

Clouds and Precipitation
Forecast for 2018-05-21 18:00 UTC. Updated 6 hours ago

Ground ~20,000 ft ~40,000 ft Winds

EGCC

Details ICAO EGCC (MAN)
Name Manchester Intl
Region United Kingdom
Timezone Europe/London (UTC+1.0)
Stats Elevation 257 ft / 78 m (AMSL)
Location 53.347141° -2.283954°
Runways 2
Magnetic Variation 1.393° W

METAR

EGCC 212250Z AUTO 26003KT 9999 NCD 13/10 Q1018 NOSIG

Decode

TAF

TAF EGCC 211701Z 2118/2224 32010KT 9999 FEW045 TEMPO 2118/2124 VRB05KT PROB40 TEMPO 2118/2120 7000 SHRA BECMG 2200/2203 03007KT PROB40 2200/2208 5000 BR

Decode

Departure Runways

ID Width Length Bearing (true) Bearing (mag) Surface Threshold Offset Overrun Length
05L 151 ft / 46 m 9,981 ft / 3,042 m 50.99° 52.38° Asphalt 1,401 ft / 427 m 0 ft / 0 m
05R 151 ft / 46 m 9,952 ft / 3,033 m 50.97° 52.36° Asphalt 0 ft / 0 m 26 ft / 8 m
23L 151 ft / 46 m 9,952 ft / 3,033 m 231.00° 232.39° Asphalt 561 ft / 171 m 0 ft / 0 m
23R 151 ft / 46 m 9,981 ft / 3,042 m 231.02° 232.41° Asphalt 597 ft / 182 m 0 ft / 0 m

MUHG

Details ICAO MUHG (HOG)
Name FRANK PAIS INTL
Region Cuba
Timezone America/Havana (UTC-4.0)
Stats Elevation 361 ft / 110 m (AMSL)
Location 20.785554° -76.315108°
Runways 1
Magnetic Variation 8.288° W

METAR

MUHG 212250Z 08007KT 8000 FEW030 BKN070 24/22 Q1014

Decode

TAF

TAF TAF AMD MUHG 212200Z 2122/2218 09008KT 9000 SCT020 BKN060

Decode

Destination Runways

ID Width Length Bearing (true) Bearing (mag) Surface Threshold Offset Overrun Length
05 148 ft / 45 m 10,642 ft / 3,244 m 46.12° 54.41° Asphalt 328 ft / 100 m 290 ft / 88 m
23 148 ft / 45 m 10,642 ft / 3,244 m 226.12° 234.41° Asphalt 0 ft / 0 m 0 ft / 0 m

Approach Navaids

Runway Type Ident Frequency Range Bearing (true) Bearing (mag) Slope Elevation
05 Localiser IHG 111.30 MHz 18 nm / 33 km 46.13° 54.42° - 361 ft / 110 m (AMSL)
05 Glidescope IHG 111.30 MHz 10 nm / 19 km 46.12° 54.41° 3.00° 361 ft / 110 m (AMSL)

Popular Alternatives